sensor_id;sensor_type;location;lat;lon;timestamp;pressure;altitude;pressure_sealevel;temperature;humidity
40946;BME280;55635;50.264;11.918;2022-12-18T00:01:44;96842.81;;;-12.85;69.27
40946;BME280;55635;50.264;11.918;2022-12-18T00:04:26;96843.66;;;-12.86;69.22
40946;BME280;55635;50.264;11.918;2022-12-18T00:07:08;96846.16;;;-12.78;68.96
40946;BME280;55635;50.264;11.918;2022-12-18T00:09:49;96843.50;;;-12.70;68.07
40946;BME280;55635;50.264;11.918;2022-12-18T00:12:31;96845.19;;;-12.71;68.19
40946;BME280;55635;50.264;11.918;2022-12-18T00:15:12;96852.75;;;-12.60;69.09
40946;BME280;55635;50.264;11.918;2022-12-18T00:17:53;96846.78;;;-12.61;68.35
40946;BME280;55635;50.264;11.918;2022-12-18T00:20:39;96850.19;;;-12.60;68.15
40946;BME280;55635;50.264;11.918;2022-12-18T00:23:20;96867.06;;;-12.47;68.00
40946;BME280;55635;50.264;11.918;2022-12-18T00:26:03;96849.25;;;-12.53;67.75
40946;BME280;55635;50.264;11.918;2022-12-18T00:28:46;96860.25;;;-12.47;67.13
40946;BME280;55635;50.264;11.918;2022-12-18T00:31:27;96843.28;;;-12.52;67.12
40946;BME280;55635;50.264;11.918;2022-12-18T00:34:13;96854.38;;;-12.56;67.29
40946;BME280;55635;50.264;11.918;2022-12-18T00:36:54;96850.28;;;-12.66;67.24
40946;BME280;55635;50.264;11.918;2022-12-18T00:39:36;96854.50;;;-12.64;67.67
40946;BME280;55635;50.264;11.918;2022-12-18T00:42:18;96863.78;;;-12.58;67.85
40946;BME280;55635;50.264;11.918;2022-12-18T00:45:17;96850.31;;;-12.69;67.50
40946;BME280;55635;50.264;11.918;2022-12-18T00:47:58;96862.06;;;-12.56;67.35
40946;BME280;55635;50.264;11.918;2022-12-18T00:50:39;96868.81;;;-12.52;67.61
40946;BME280;55635;50.264;11.918;2022-12-18T00:53:21;96865.44;;;-12.54;67.15
40946;BME280;55635;50.264;11.918;2022-12-18T00:56:03;96867.19;;;-12.59;67.39
40946;BME280;55635;50.264;11.918;2022-12-18T00:58:44;96869.81;;;-12.65;67.83
40946;BME280;55635;50.264;11.918;2022-12-18T01:01:25;96874.84;;;-12.59;67.81
40946;BME280;55635;50.264;11.918;2022-12-18T01:04:06;96885.09;;;-12.61;67.62
40946;BME280;55635;50.264;11.918;2022-12-18T01:06:48;96874.97;;;-12.72;67.44
40946;BME280;55635;50.264;11.918;2022-12-18T01:09:29;96879.19;;;-12.67;67.59
40946;BME280;55635;50.264;11.918;2022-12-18T01:12:10;96879.28;;;-12.75;67.62
40946;BME280;55635;50.264;11.918;2022-12-18T01:14:52;96874.25;;;-12.83;68.05
40946;BME280;55635;50.264;11.918;2022-12-18T01:17:33;96873.44;;;-12.85;67.59
40946;BME280;55635;50.264;11.918;2022-12-18T01:20:15;96873.50;;;-12.92;67.88
40946;BME280;55635;50.264;11.918;2022-12-18T01:22:57;96871.78;;;-12.93;67.68
40946;BME280;55635;50.264;11.918;2022-12-18T01:25:38;96863.38;;;-13.00;68.36
40946;BME280;55635;50.264;11.918;2022-12-18T01:28:22;96880.31;;;-12.94;67.82
40946;BME280;55635;50.264;11.918;2022-12-18T01:31:24;96888.75;;;-12.86;67.71
40946;BME280;55635;50.264;11.918;2022-12-18T01:34:06;96892.19;;;-12.90;66.59
40946;BME280;55635;50.264;11.918;2022-12-18T01:36:49;96888.81;;;-12.95;66.87
40946;BME280;55635;50.264;11.918;2022-12-18T01:39:35;96877.91;;;-13.08;67.51
40946;BME280;55635;50.264;11.918;2022-12-18T01:42:17;96884.78;;;-13.14;68.03
40946;BME280;55635;50.264;11.918;2022-12-18T01:48:06;96881.56;;;-13.36;69.77
40946;BME280;55635;50.264;11.918;2022-12-18T01:50:49;96874.03;;;-13.53;69.10
40946;BME280;55635;50.264;11.918;2022-12-18T01:53:31;96888.47;;;-13.53;66.85
40946;BME280;55635;50.264;11.918;2022-12-18T01:56:16;96889.28;;;-13.48;66.54
40946;BME280;55635;50.264;11.918;2022-12-18T01:59:03;96893.53;;;-13.43;65.73
40946;BME280;55635;50.264;11.918;2022-12-18T02:01:45;96891.81;;;-13.42;66.00
40946;BME280;55635;50.264;11.918;2022-12-18T02:04:27;96881.69;;;-13.54;67.52
40946;BME280;55635;50.264;11.918;2022-12-18T02:11:00;96894.41;;;-13.50;69.14
40946;BME280;55635;50.264;11.918;2022-12-18T02:20:23;96885.13;;;-13.58;68.98
40946;BME280;55635;50.264;11.918;2022-12-18T02:24:17;96890.19;;;-13.57;66.81
40946;BME280;55635;50.264;11.918;2022-12-18T02:26:50;96880.13;;;-13.72;66.98
40946;BME280;55635;50.264;11.918;2022-12-18T02:29:51;96886.88;;;-13.66;66.25
40946;BME280;55635;50.264;11.918;2022-12-18T02:32:48;96882.72;;;-13.81;66.27
40946;BME280;55635;50.264;11.918;2022-12-18T02:35:31;96871.00;;;-14.08;65.83
40946;BME280;55635;50.264;11.918;2022-12-18T02:38:15;96863.38;;;-14.11;65.51
40946;BME280;55635;50.264;11.918;2022-12-18T02:41:00;96856.59;;;-14.13;65.15
40946;BME280;55635;50.264;11.918;2022-12-18T02:43:52;96859.09;;;-14.09;64.68
40946;BME280;55635;50.264;11.918;2022-12-18T02:46:42;96854.91;;;-14.16;65.17
40946;BME280;55635;50.264;11.918;2022-12-18T02:49:32;96865.91;;;-14.08;65.31
40946;BME280;55635;50.264;11.918;2022-12-18T02:59:07;96881.16;;;-14.09;64.58
40946;BME280;55635;50.264;11.918;2022-12-18T03:02:02;96883.75;;;-14.14;64.27
40946;BME280;55635;50.264;11.918;2022-12-18T03:05:22;96883.72;;;-14.09;64.02
40946;BME280;55635;50.264;11.918;2022-12-18T03:08:21;96866.78;;;-14.18;64.23
40946;BME280;55635;50.264;11.918;2022-12-18T03:11:10;96870.19;;;-14.17;65.04
40946;BME280;55635;50.264;11.918;2022-12-18T03:13:55;96853.28;;;-14.32;65.08
40946;BME280;55635;50.264;11.918;2022-12-18T03:16:40;96865.97;;;-14.27;65.27
40946;BME280;55635;50.264;11.918;2022-12-18T03:19:24;96857.53;;;-14.29;64.23
40946;BME280;55635;50.264;11.918;2022-12-18T03:22:13;96844.88;;;-14.34;63.33
40946;BME280;55635;50.264;11.918;2022-12-18T03:25:06;96854.97;;;-14.26;63.66
40946;BME280;55635;50.264;11.918;2022-12-18T03:27:54;96851.53;;;-14.24;63.88
40946;BME280;55635;50.264;11.918;2022-12-18T03:30:40;96852.41;;;-14.23;64.82
40946;BME280;55635;50.264;11.918;2022-12-18T03:33:31;96854.06;;;-14.18;65.08
40946;BME280;55635;50.264;11.918;2022-12-18T03:36:15;96851.59;;;-14.28;65.71
40946;BME280;55635;50.264;11.918;2022-12-18T03:38:57;96853.28;;;-14.30;67.65
40946;BME280;55635;50.264;11.918;2022-12-18T03:42:14;96879.47;;;-14.09;70.93
40946;BME280;55635;50.264;11.918;2022-12-18T03:45:19;96889.53;;;-13.88;70.48
40946;BME280;55635;50.264;11.918;2022-12-18T03:48:20;96882.78;;;-13.89;67.86
40946;BME280;55635;50.264;11.918;2022-12-18T03:51:42;96872.66;;;-14.02;65.67
40946;BME280;55635;50.264;11.918;2022-12-18T03:54:27;96878.59;;;-14.02;67.31
40946;BME280;55635;50.264;11.918;2022-12-18T03:57:22;96903.09;;;-13.79;73.81
40946;BME280;55635;50.264;11.918;2022-12-18T04:00:14;96912.38;;;-13.72;70.34
40946;BME280;55635;50.264;11.918;2022-12-18T04:03:07;96909.00;;;-13.71;68.98
40946;BME280;55635;50.264;11.918;2022-12-18T04:05:56;96922.53;;;-13.66;68.46
40946;BME280;55635;50.264;11.918;2022-12-18T04:08:39;96919.19;;;-13.70;68.57
40946;BME280;55635;50.264;11.918;2022-12-18T04:11:22;96936.13;;;-13.61;68.43
40946;BME280;55635;50.264;11.918;2022-12-18T04:14:04;96934.38;;;-13.52;70.93
40946;BME280;55635;50.264;11.918;2022-12-18T04:16:46;96937.75;;;-13.50;74.55
40946;BME280;55635;50.264;11.918;2022-12-18T04:19:30;96951.16;;;-13.22;74.28
40946;BME280;55635;50.264;11.918;2022-12-18T04:22:12;96966.25;;;-12.98;77.02
40946;BME280;55635;50.264;11.918;2022-12-18T04:24:58;96978.00;;;-12.79;77.27
40946;BME280;55635;50.264;11.918;2022-12-18T04:27:46;96992.25;;;-12.55;80.23
40946;BME280;55635;50.264;11.918;2022-12-18T04:30:27;96992.91;;;-12.33;79.92
40946;BME280;55635;50.264;11.918;2022-12-18T04:33:10;96985.19;;;-12.27;74.79
40946;BME280;55635;50.264;11.918;2022-12-18T04:35:52;96972.44;;;-12.30;71.68
40946;BME280;55635;50.264;11.918;2022-12-18T04:38:34;96968.22;;;-12.34;69.95
40946;BME280;55635;50.264;11.918;2022-12-18T04:41:21;96967.50;;;-12.45;68.98
40946;BME280;55635;50.264;11.918;2022-12-18T04:44:03;96968.38;;;-12.49;69.29
40946;BME280;55635;50.264;11.918;2022-12-18T04:46:45;96959.84;;;-12.50;69.51
40946;BME280;55635;50.264;11.918;2022-12-18T04:49:26;96959.78;;;-12.44;70.10
40946;BME280;55635;50.264;11.918;2022-12-18T04:52:08;96958.16;;;-12.48;70.16
40946;BME280;55635;50.264;11.918;2022-12-18T04:54:49;96960.63;;;-12.40;71.40
40946;BME280;55635;50.264;11.918;2022-12-18T04:57:31;96963.16;;;-12.39;70.78
40946;BME280;55635;50.264;11.918;2022-12-18T05:00:12;96964.91;;;-12.44;70.49
40946;BME280;55635;50.264;11.918;2022-12-18T05:02:54;96963.28;;;-12.52;69.16
40946;BME280;55635;50.264;11.918;2022-12-18T05:05:35;96957.34;;;-12.51;69.26
40946;BME280;55635;50.264;11.918;2022-12-18T05:08:17;96964.13;;;-12.53;68.85
40946;BME280;55635;50.264;11.918;2022-12-18T05:11:08;96967.53;;;-12.51;70.13
40946;BME280;55635;50.264;11.918;2022-12-18T05:13:49;96967.47;;;-12.47;69.88
40946;BME280;55635;50.264;11.918;2022-12-18T05:16:30;96970.88;;;-12.46;68.57
40946;BME280;55635;50.264;11.918;2022-12-18T05:19:11;96962.50;;;-12.59;69.21
40946;BME280;55635;50.264;11.918;2022-12-18T05:21:52;96964.19;;;-12.58;69.72
40946;BME280;55635;50.264;11.918;2022-12-18T05:24:33;96966.81;;;-12.64;67.97
40946;BME280;55635;50.264;11.918;2022-12-18T05:27:15;96960.13;;;-12.77;67.43
40946;BME280;55635;50.264;11.918;2022-12-18T05:29:56;96957.63;;;-12.82;66.98
40946;BME280;55635;50.264;11.918;2022-12-18T05:32:37;96961.00;;;-12.80;66.95
40946;BME280;55635;50.264;11.918;2022-12-18T05:35:19;96966.16;;;-12.86;66.39
40946;BME280;55635;50.264;11.918;2022-12-18T05:38:00;96948.34;;;-12.93;66.60
40946;BME280;55635;50.264;11.918;2022-12-18T05:40:42;96937.34;;;-13.00;66.73
40946;BME280;55635;50.264;11.918;2022-12-18T05:43:25;96939.97;;;-13.06;66.91
40946;BME280;55635;50.264;11.918;2022-12-18T05:46:15;96951.91;;;-13.09;67.02
40946;BME280;55635;50.264;11.918;2022-12-18T05:49:00;96935.88;;;-13.25;67.41
40946;BME280;55635;50.264;11.918;2022-12-18T05:51:42;96931.66;;;-13.32;67.79
40946;BME280;55635;50.264;11.918;2022-12-18T05:54:23;96938.50;;;-13.37;68.58
40946;BME280;55635;50.264;11.918;2022-12-18T05:57:04;96946.09;;;-13.30;68.80
40946;BME280;55635;50.264;11.918;2022-12-18T05:59:45;96946.06;;;-13.26;69.85
40946;BME280;55635;50.264;11.918;2022-12-18T06:02:26;96962.13;;;-13.14;74.50
40946;BME280;55635;50.264;11.918;2022-12-18T06:05:08;96972.19;;;-12.97;75.36
40946;BME280;55635;50.264;11.918;2022-12-18T06:07:50;96974.69;;;-12.88;73.46
40946;BME280;55635;50.264;11.918;2022-12-18T06:10:31;96962.88;;;-13.04;68.90
40946;BME280;55635;50.264;11.918;2022-12-18T06:13:12;96948.63;;;-13.26;67.57
40946;BME280;55635;50.264;11.918;2022-12-18T06:15:54;96957.94;;;-13.18;67.19
40946;BME280;55635;50.264;11.918;2022-12-18T06:18:35;96969.88;;;-13.26;66.25
40946;BME280;55635;50.264;11.918;2022-12-18T06:21:16;96972.47;;;-13.31;66.64
40946;BME280;55635;50.264;11.918;2022-12-18T06:23:58;96977.56;;;-13.31;66.98
40946;BME280;55635;50.264;11.918;2022-12-18T06:26:40;96979.25;;;-13.30;66.84
40946;BME280;55635;50.264;11.918;2022-12-18T06:29:21;96980.13;;;-13.32;66.29
40946;BME280;55635;50.264;11.918;2022-12-18T06:32:02;96981.00;;;-13.35;66.28
40946;BME280;55635;50.264;11.918;2022-12-18T06:34:43;96986.09;;;-13.35;66.05
40946;BME280;55635;50.264;11.918;2022-12-18T06:37:25;96989.50;;;-13.37;66.51
40946;BME280;55635;50.264;11.918;2022-12-18T06:40:07;96986.94;;;-13.36;67.05
40946;BME280;55635;50.264;11.918;2022-12-18T06:42:49;96989.47;;;-13.36;67.71
40946;BME280;55635;50.264;11.918;2022-12-18T06:45:30;96988.66;;;-13.36;67.88
40946;BME280;55635;50.264;11.918;2022-12-18T06:48:11;96985.28;;;-13.41;68.23
40946;BME280;55635;50.264;11.918;2022-12-18T06:50:53;96993.66;;;-13.18;76.57
40946;BME280;55635;50.264;11.918;2022-12-18T06:53:35;97014.63;;;-12.86;78.94
40946;BME280;55635;50.264;11.918;2022-12-18T06:56:16;97028.91;;;-12.65;79.13
40946;BME280;55635;50.264;11.918;2022-12-18T06:58:58;97038.13;;;-12.46;77.77
40946;BME280;55635;50.264;11.918;2022-12-18T07:01:39;97043.19;;;-12.40;77.82
40946;BME280;55635;50.264;11.918;2022-12-18T07:04:20;97037.13;;;-12.28;77.44
40946;BME280;55635;50.264;11.918;2022-12-18T07:07:01;97046.34;;;-12.13;76.56
40946;BME280;55635;50.264;11.918;2022-12-18T07:09:42;97041.19;;;-12.10;77.32
40946;BME280;55635;50.264;11.918;2022-12-18T07:12:23;97047.88;;;-11.97;77.16
40946;BME280;55635;50.264;11.918;2022-12-18T07:15:05;97042.78;;;-11.97;75.28
40946;BME280;55635;50.264;11.918;2022-12-18T07:17:47;97040.16;;;-11.90;73.24
40946;BME280;55635;50.264;11.918;2022-12-18T07:20:28;97037.53;;;-11.85;73.34
40946;BME280;55635;50.264;11.918;2022-12-18T07:23:09;97035.78;;;-11.80;72.47
40946;BME280;55635;50.264;11.918;2022-12-18T07:25:50;97037.22;;;-11.59;74.94
40946;BME280;55635;50.264;11.918;2022-12-18T07:28:33;97046.50;;;-11.51;74.75
40946;BME280;55635;50.264;11.918;2022-12-18T07:31:19;97046.53;;;-11.55;75.15
40946;BME280;55635;50.264;11.918;2022-12-18T07:34:01;97046.25;;;-11.31;74.64
40946;BME280;55635;50.264;11.918;2022-12-18T07:36:42;97047.94;;;-11.29;72.55
40946;BME280;55635;50.264;11.918;2022-12-18T07:39:24;97053.09;;;-11.33;69.77
40946;BME280;55635;50.264;11.918;2022-12-18T07:42:08;97053.91;;;-11.30;71.27
40946;BME280;55635;50.264;11.918;2022-12-18T07:45:08;97024.13;;;-11.35;71.21
40946;BME280;55635;50.264;11.918;2022-12-18T07:47:50;97055.25;;;-11.03;72.05
40946;BME280;55635;50.264;11.918;2022-12-18T07:50:31;97069.53;;;-10.87;72.35
40946;BME280;55635;50.264;11.918;2022-12-18T07:53:12;97085.66;;;-9.78;76.60
40946;BME280;55635;50.264;11.918;2022-12-18T07:56:02;97079.22;;;-8.70;72.85
40946;BME280;55635;50.264;11.918;2022-12-18T07:58:43;97080.78;;;-7.92;68.03
40946;BME280;55635;50.264;11.918;2022-12-18T08:01:25;97074.91;;;-6.73;68.64
40946;BME280;55635;50.264;11.918;2022-12-18T08:04:06;97058.50;;;-5.88;65.84
40946;BME280;55635;50.264;11.918;2022-12-18T08:06:47;97058.78;;;-5.00;61.66
40946;BME280;55635;50.264;11.918;2022-12-18T08:09:28;97066.72;;;-4.15;59.66
40946;BME280;55635;50.264;11.918;2022-12-18T08:12:09;97068.00;;;-3.02;64.03
40946;BME280;55635;50.264;11.918;2022-12-18T08:14:49;97054.31;;;-3.24;54.80
40946;BME280;55635;50.264;11.918;2022-12-18T08:17:30;97064.00;;;-2.52;53.08
40946;BME280;55635;50.264;11.918;2022-12-18T08:20:11;97063.59;;;-2.07;51.81
40946;BME280;55635;50.264;11.918;2022-12-18T08:22:54;97075.00;;;-1.56;52.61
40946;BME280;55635;50.264;11.918;2022-12-18T08:25:35;97065.31;;;-1.03;47.68
40946;BME280;55635;50.264;11.918;2022-12-18T08:28:16;97061.28;;;-1.08;48.31
40946;BME280;55635;50.264;11.918;2022-12-18T08:30:57;97063.94;;;-0.93;49.49
40946;BME280;55635;50.264;11.918;2022-12-18T08:33:39;97065.13;;;-1.67;49.77
40946;BME280;55635;50.264;11.918;2022-12-18T08:36:20;97065.13;;;-2.57;49.37
40946;BME280;55635;50.264;11.918;2022-12-18T08:39:02;97070.84;;;-2.88;50.82
40946;BME280;55635;50.264;11.918;2022-12-18T08:41:43;97075.34;;;-2.92;50.58
40946;BME280;55635;50.264;11.918;2022-12-18T08:44:44;97088.41;;;-2.56;51.03
40946;BME280;55635;50.264;11.918;2022-12-18T08:47:25;97088.97;;;-2.12;49.43
40946;BME280;55635;50.264;11.918;2022-12-18T08:50:07;97092.47;;;-2.13;49.43
40946;BME280;55635;50.264;11.918;2022-12-18T08:52:48;97086.75;;;-1.49;49.88
40946;BME280;55635;50.264;11.918;2022-12-18T08:55:29;97088.22;;;-1.27;47.92
40946;BME280;55635;50.264;11.918;2022-12-18T08:58:10;97067.75;;;-1.00;46.40
40946;BME280;55635;50.264;11.918;2022-12-18T09:00:50;97063.94;;;-0.44;45.84
40946;BME280;55635;50.264;11.918;2022-12-18T09:03:32;97075.41;;;-0.16;45.91
40946;BME280;55635;50.264;11.918;2022-12-18T09:06:15;97055.94;;;-1.40;47.21
40946;BME280;55635;50.264;11.918;2022-12-18T09:08:57;97059.72;;;-1.62;47.72
40946;BME280;55635;50.264;11.918;2022-12-18T09:11:38;97066.81;;;-1.15;46.68
40946;BME280;55635;50.264;11.918;2022-12-18T09:14:19;97043.25;;;-2.16;47.29
40946;BME280;55635;50.264;11.918;2022-12-18T09:17:00;97054.59;;;-1.47;49.35
40946;BME280;55635;50.264;11.918;2022-12-18T09:19:44;97034.53;;;-1.79;47.75
40946;BME280;55635;50.264;11.918;2022-12-18T09:22:25;97045.97;;;-0.82;47.55
40946;BME280;55635;50.264;11.918;2022-12-18T09:25:06;97045.69;;;-0.60;44.49
40946;BME280;55635;50.264;11.918;2022-12-18T09:27:50;97031.63;;;-0.73;45.01
40946;BME280;55635;50.264;11.918;2022-12-18T09:30:32;97034.06;;;-0.86;45.63
40946;BME280;55635;50.264;11.918;2022-12-18T09:33:17;97024.47;;;-1.01;44.91
40946;BME280;55635;50.264;11.918;2022-12-18T09:36:05;97032.41;;;-0.24;44.56
40946;BME280;55635;50.264;11.918;2022-12-18T09:38:47;97027.16;;;1.25;44.44
40946;BME280;55635;50.264;11.918;2022-12-18T09:41:51;97030.06;;;2.16;40.35
40946;BME280;55635;50.264;11.918;2022-12-18T09:44:41;97030.06;;;2.16;41.46
40946;BME280;55635;50.264;11.918;2022-12-18T09:47:36;97017.34;;;3.01;43.21
40946;BME280;55635;50.264;11.918;2022-12-18T09:50:33;97025.50;;;4.20;41.10
40946;BME280;55635;50.264;11.918;2022-12-18T09:53:23;97033.34;;;2.97;39.30
40946;BME280;55635;50.264;11.918;2022-12-18T09:56:05;97029.63;;;0.70;42.07
40946;BME280;55635;50.264;11.918;2022-12-18T09:59:22;97027.81;;;0.26;42.86
40946;BME280;55635;50.264;11.918;2022-12-18T10:02:19;97030.19;;;-0.79;46.02
40946;BME280;55635;50.264;11.918;2022-12-18T10:05:07;97039.00;;;0.28;45.36
40946;BME280;55635;50.264;11.918;2022-12-18T10:18:06;97004.63;;;1.50;42.16
40946;BME280;55635;50.264;11.918;2022-12-18T10:21:03;96999.88;;;1.57;44.65
40946;BME280;55635;50.264;11.918;2022-12-18T10:26:49;96992.88;;;1.57;44.49
40946;BME280;55635;50.264;11.918;2022-12-18T10:29:32;96993.25;;;1.51;44.63
40946;BME280;55635;50.264;11.918;2022-12-18T10:32:27;97007.44;;;2.15;43.85
40946;BME280;55635;50.264;11.918;2022-12-18T10:35:21;96991.16;;;1.97;42.97
40946;BME280;55635;50.264;11.918;2022-12-18T10:40:59;96988.22;;;1.89;44.30
40946;BME280;55635;50.264;11.918;2022-12-18T10:43:40;96974.97;;;2.32;43.94
40946;BME280;55635;50.264;11.918;2022-12-18T10:46:22;96961.13;;;1.90;45.05
40946;BME280;55635;50.264;11.918;2022-12-18T10:49:03;96976.03;;;0.92;46.27
40946;BME280;55635;50.264;11.918;2022-12-18T10:51:45;96984.06;;;0.75;46.36
40946;BME280;55635;50.264;11.918;2022-12-18T10:54:33;96984.25;;;0.86;47.20
40946;BME280;55635;50.264;11.918;2022-12-18T11:00:21;96979.94;;;2.87;44.88
40946;BME280;55635;50.264;11.918;2022-12-18T11:03:02;96959.38;;;3.67;43.96
40946;BME280;55635;50.264;11.918;2022-12-18T11:06:09;96965.00;;;3.98;42.96
40946;BME280;55635;50.264;11.918;2022-12-18T11:11:52;96977.03;;;1.46;48.04
40946;BME280;55635;50.264;11.918;2022-12-18T11:15:01;96987.19;;;0.22;51.73
40946;BME280;55635;50.264;11.918;2022-12-18T11:17:42;96996.97;;;-0.42;53.44
40946;BME280;55635;50.264;11.918;2022-12-18T11:20:32;96984.47;;;0.39;53.80
40946;BME280;55635;50.264;11.918;2022-12-18T11:23:15;96986.00;;;1.14;52.21
40946;BME280;55635;50.264;11.918;2022-12-18T11:26:02;96978.47;;;1.09;52.09
40946;BME280;55635;50.264;11.918;2022-12-18T11:29:10;96981.25;;;-0.57;54.55
40946;BME280;55635;50.264;11.918;2022-12-18T11:32:38;96997.72;;;-1.37;57.61
40946;BME280;55635;50.264;11.918;2022-12-18T11:38:42;96971.19;;;-1.27;58.45
40946;BME280;55635;50.264;11.918;2022-12-18T11:41:34;96985.13;;;-0.64;56.76
40946;BME280;55635;50.264;11.918;2022-12-18T11:45:00;96979.50;;;-0.72;57.32
40946;BME280;55635;50.264;11.918;2022-12-18T11:47:54;96980.31;;;-1.35;57.82
40946;BME280;55635;50.264;11.918;2022-12-18T11:53:21;96990.56;;;-0.84;58.20
40946;BME280;55635;50.264;11.918;2022-12-18T11:56:32;96998.91;;;-0.46;57.84
40946;BME280;55635;50.264;11.918;2022-12-18T12:02:38;97002.16;;;-0.27;57.24
40946;BME280;55635;50.264;11.918;2022-12-18T12:09:23;97004.88;;;-0.28;57.26
40946;BME280;55635;50.264;11.918;2022-12-18T12:21:44;96965.31;;;0.54;56.79
40946;BME280;55635;50.264;11.918;2022-12-18T12:34:22;96953.09;;;-0.34;59.34
40946;BME280;55635;50.264;11.918;2022-12-18T12:39:56;96920.78;;;-0.62;60.74
40946;BME280;55635;50.264;11.918;2022-12-18T12:42:42;96945.50;;;-0.23;59.88
40946;BME280;55635;50.264;11.918;2022-12-18T12:46:04;96939.59;;;-0.41;59.68
40946;BME280;55635;50.264;11.918;2022-12-18T12:49:03;96931.78;;;-0.57;60.33
40946;BME280;55635;50.264;11.918;2022-12-18T12:52:10;96931.94;;;-0.44;59.60
40946;BME280;55635;50.264;11.918;2022-12-18T12:54:54;96917.41;;;-0.18;59.16
40946;BME280;55635;50.264;11.918;2022-12-18T13:01:01;96924.25;;;-0.92;61.88
40946;BME280;55635;50.264;11.918;2022-12-18T13:07:37;96910.94;;;-1.03;62.05
40946;BME280;55635;50.264;11.918;2022-12-18T13:13:11;96913.16;;;0.11;59.06
40946;BME280;55635;50.264;11.918;2022-12-18T13:16:07;96899.09;;;0.13;57.66
40946;BME280;55635;50.264;11.918;2022-12-18T13:18:54;96918.19;;;0.28;58.09
40946;BME280;55635;50.264;11.918;2022-12-18T13:21:37;96906.88;;;-0.01;59.11
40946;BME280;55635;50.264;11.918;2022-12-18T13:24:28;96909.91;;;-0.09;58.70
40946;BME280;55635;50.264;11.918;2022-12-18T13:45:42;96927.53;;;-3.49;70.52
40946;BME280;55635;50.264;11.918;2022-12-18T13:48:26;96921.88;;;-3.77;72.34
40946;BME280;55635;50.264;11.918;2022-12-18T13:51:10;96930.03;;;-3.87;74.31
40946;BME280;55635;50.264;11.918;2022-12-18T13:54:40;96934.47;;;-3.31;72.18
40946;BME280;55635;50.264;11.918;2022-12-18T13:57:03;96911.31;;;-3.54;73.37
40946;BME280;55635;50.264;11.918;2022-12-18T13:59:45;96923.19;;;-3.30;73.18
40946;BME280;55635;50.264;11.918;2022-12-18T14:02:28;96917.84;;;-3.27;72.63
40946;BME280;55635;50.264;11.918;2022-12-18T14:05:24;96918.81;;;-3.48;73.30
40946;BME280;55635;50.264;11.918;2022-12-18T14:08:10;96925.28;;;-3.97;73.71
40946;BME280;55635;50.264;11.918;2022-12-18T14:10:51;96915.06;;;-4.00;75.01
40946;BME280;55635;50.264;11.918;2022-12-18T14:13:38;96915.03;;;-3.99;75.82
40946;BME280;55635;50.264;11.918;2022-12-18T14:16:22;96900.84;;;-4.10;76.21
40946;BME280;55635;50.264;11.918;2022-12-18T14:19:03;96912.56;;;-4.02;76.04
40946;BME280;55635;50.264;11.918;2022-12-18T14:21:48;96907.00;;;-4.13;76.62
40946;BME280;55635;50.264;11.918;2022-12-18T14:24:30;96926.28;;;-4.00;76.55
40946;BME280;55635;50.264;11.918;2022-12-18T14:27:24;96920.34;;;-4.02;75.83
40946;BME280;55635;50.264;11.918;2022-12-18T14:33:35;96925.75;;;-4.28;77.66
40946;BME280;55635;50.264;11.918;2022-12-18T14:36:28;96918.22;;;-4.34;78.66
40946;BME280;55635;50.264;11.918;2022-12-18T14:39:17;96911.56;;;-4.40;78.22
40946;BME280;55635;50.264;11.918;2022-12-18T14:41:58;96929.44;;;-4.33;78.58
40946;BME280;55635;50.264;11.918;2022-12-18T14:44:39;96931.41;;;-4.40;78.34
40946;BME280;55635;50.264;11.918;2022-12-18T14:47:20;96928.66;;;-4.35;79.11
40946;BME280;55635;50.264;11.918;2022-12-18T14:50:02;96936.44;;;-4.35;79.29
40946;BME280;55635;50.264;11.918;2022-12-18T14:52:43;96931.03;;;-4.31;79.54
40946;BME280;55635;50.264;11.918;2022-12-18T14:55:24;96931.16;;;-4.34;79.53
40946;BME280;55635;50.264;11.918;2022-12-18T14:58:15;96929.38;;;-4.32;78.82
40946;BME280;55635;50.264;11.918;2022-12-18T15:00:58;96935.22;;;-4.07;78.83
40946;BME280;55635;50.264;11.918;2022-12-18T15:03:43;96939.91;;;-3.95;78.79
40946;BME280;55635;50.264;11.918;2022-12-18T15:06:31;96931.22;;;-4.14;78.77
40946;BME280;55635;50.264;11.918;2022-12-18T15:09:24;96935.16;;;-4.05;78.73
40946;BME280;55635;50.264;11.918;2022-12-18T15:18:30;96939.63;;;-3.89;79.28
40946;BME280;55635;50.264;11.918;2022-12-18T15:21:19;96933.78;;;-3.73;78.42
40946;BME280;55635;50.264;11.918;2022-12-18T15:24:00;96930.16;;;-3.90;79.08
40946;BME280;55635;50.264;11.918;2022-12-18T15:26:41;96915.06;;;-3.80;78.01
40946;BME280;55635;50.264;11.918;2022-12-18T15:29:23;96929.91;;;-3.83;78.19
40946;BME280;55635;50.264;11.918;2022-12-18T15:32:19;96926.00;;;-3.94;78.48
40946;BME280;55635;50.264;11.918;2022-12-18T15:35:24;96932.47;;;-4.24;79.51
40946;BME280;55635;50.264;11.918;2022-12-18T15:38:06;96925.78;;;-4.08;79.95
40946;BME280;55635;50.264;11.918;2022-12-18T15:40:48;96940.38;;;-4.27;80.90
40946;BME280;55635;50.264;11.918;2022-12-18T15:43:29;96932.69;;;-4.08;79.90
40946;BME280;55635;50.264;11.918;2022-12-18T15:46:20;96936.00;;;-4.05;79.52
40946;BME280;55635;50.264;11.918;2022-12-18T15:49:02;96937.75;;;-4.05;79.37
40946;BME280;55635;50.264;11.918;2022-12-18T15:51:43;96949.97;;;-4.09;80.10
40946;BME280;55635;50.264;11.918;2022-12-18T15:54:25;96941.44;;;-4.11;80.20
40946;BME280;55635;50.264;11.918;2022-12-18T15:57:25;96947.97;;;-4.02;79.98
40946;BME280;55635;50.264;11.918;2022-12-18T16:00:11;96951.78;;;-4.11;80.38
40946;BME280;55635;50.264;11.918;2022-12-18T16:02:53;96941.63;;;-3.95;80.25
40946;BME280;55635;50.264;11.918;2022-12-18T16:05:34;96943.69;;;-4.23;80.51
40946;BME280;55635;50.264;11.918;2022-12-18T16:08:15;96933.59;;;-4.29;81.21
40946;BME280;55635;50.264;11.918;2022-12-18T16:10:57;96935.91;;;-4.23;81.04
40946;BME280;55635;50.264;11.918;2022-12-18T16:13:39;96938.19;;;-3.96;79.94
40946;BME280;55635;50.264;11.918;2022-12-18T16:16:20;96933.03;;;-3.96;79.68
40946;BME280;55635;50.264;11.918;2022-12-18T16:19:01;96935.75;;;-3.99;79.57